Flight Track Log - Related Links

Times and Time Zones

All times are in EST time to prevent confusion due to time zone crossing. See the N261B flight status page for this flight to view local times or setup timezone preferences in your user account.

Time Position Orientation Groundspeed Altitude Reporting Facility
EST Latitude Longitude Course Direction KTS MPH feet Rate Location/Type
Wed 06:32:52 PM 40.0550 -82.3828 270° West 119 137 4,000  Level Indianapolis Center
Wed 06:32:55 PM 40.0550 -82.3831 270° West 119 137 3,900 1,015 Descending Indianapolis Center
Wed 06:33:57 PM 40.0722 -82.3525 54° Northeast 112 129 5,100 1,161 Climbing Indianapolis Center
Wed 06:34:59 PM 40.0878 -82.3219 56° Northeast 104 120 6,300 968 Climbing Indianapolis Center
Wed 06:36:01 PM 40.1086 -82.2753 60° Northeast 126 145 7,100 339 Climbing Indianapolis Center
Wed 06:37:03 PM 40.1331 -82.2286 56° Northeast 151 174 7,000 -97 Descending Indianapolis Center
Wed 06:38:05 PM 40.1594 -82.1786 55° Northeast 165 190 6,900 -48 Descending Indianapolis Center
Wed 06:39:08 PM 40.1847 -82.1275 57° Northeast 166 191 6,900 48 Level Indianapolis Center
Wed 06:40:10 PM 40.2114 -82.0778 55° Northeast 168 193 7,000 48 Climbing Indianapolis Center
Wed 06:41:12 PM 40.2408 -82.0217 55° Northeast 165 190 7,000 -97 Level Indianapolis Center
Wed 06:42:14 PM 40.2669 -81.9728 55° Northeast 164 189 6,800  Descending Indianapolis Center
Wed 06:43:16 PM 40.2928 -81.9222 56° Northeast 165 190 7,000 97 Climbing Indianapolis Center
Wed 06:44:18 PM 40.3183 -81.8708 57° Northeast 165 190 7,000 -48 Level Indianapolis Center
Wed 06:45:20 PM 40.3453 -81.8219 54° Northeast 165 190 6,900 48 Descending Indianapolis Center
Wed 06:46:22 PM 40.3711 -81.7706 57° Northeast 168 193 7,100  Climbing Indianapolis Center
Wed 06:47:24 PM 40.4011 -81.7103 57° Northeast 168 193 6,900 -48 Descending Indianapolis Center
Wed 06:48:26 PM 40.4283 -81.6592 55° Northeast 170 196 7,000  Climbing Indianapolis Center
Wed 06:49:28 PM 40.4561 -81.6108 53° Northeast 167 192 6,900  Descending Indianapolis Center
Wed 06:50:30 PM 40.4850 -81.5639 51° Northeast 165 190 7,000 -48 Climbing Indianapolis Center
Wed 06:51:32 PM 40.5147 -81.5186 49° Northeast 163 188 6,800 -435 Descending Indianapolis Center
Wed 06:52:34 PM 40.5458 -81.4686 51° Northeast 172 198 6,100 -629 Descending Indianapolis Center
Wed 06:53:36 PM 40.5769 -81.4061 57° Northeast 174 200 5,500 -532 Descending Indianapolis Center
Wed 06:54:38 PM 40.6011 -81.3567 57° Northeast 167 192 5,000 -581 Descending Indianapolis Center
Wed 06:55:40 PM 40.6300 -81.3031 55° Northeast 170 196 4,300 -726 Descending Indianapolis Center
Wed 06:56:42 PM 40.6592 -81.2503 54° Northeast 174 200 3,500 -484 Descending Indianapolis Center
Wed 06:57:44 PM 40.6883 -81.1975 54° Northeast 176 203 3,300 -194 Descending Indianapolis Center
Wed 06:58:46 PM 40.7156 -81.1464 55° Northeast 174 200 3,100 -97 Descending Indianapolis Center
Wed 06:59:48 PM 40.7425 -81.0964 55° Northeast 170 196 3,100 48 Level Indianapolis Center
Wed 07:00:50 PM 40.7681 -81.0503 54° Northeast 164 189 3,200  Climbing Indianapolis Center
Wed 07:02:03 PM 40.8011 -80.9900 54° Northeast 162 186 3,100 -44 Descending Cleveland Center
Wed 07:03:05 PM 40.8281 -80.9394 55° Northeast 165 190 3,100 -65 Level Cleveland Center
Wed 07:05:09 PM 40.8856 -80.8336 54° Northeast 162 186 2,900 -32 Descending Cleveland Center
Wed 07:06:11 PM 40.9108 -80.7856 55° Northeast 161 185 3,000 48 Climbing Cleveland Center
Wed 07:07:13 PM 40.9367 -80.7367 55° Northeast 162 186 3,000 -97 Level Cleveland Center
Wed 07:08:15 PM 40.9547 -80.6903 63° Northeast 150 173 2,800 -194 Descending Cleveland Center

Login

Don't have an account? Register now (free) for customized features, flight alerts, and more!